APG2322 RPLL-RPVA
Flight info
| Callsign | APG2322 |
|---|---|
| Flight time | 0h 58m |
| Altitude | 31000 |
| Route | IPATA2R IPATA B462 ARREX ARREX2R |
| Aircraft | A320/M-SDE3FGHIRWY/LB1 |
Departure
| Time | 2026-05-07 08:09 |
|---|---|
| Airport | Ninoy Aquino International Airport (RPLL) |
Arrival
| Time | 2026-05-07 09:07 |
|---|---|
| Airport | Daniel Z. Romualdez Airport (RPVA) |
| Time | Latitude | Longitude | Altitude | Speed | Heading |
|---|---|---|---|---|---|
| 2026-05-07 07:48 | 14.50855 | 121.01279 | 81 ft | 0 kts | 330° |
| 2026-05-07 07:54 | 14.50845 | 121.01284 | 81 ft | 2 kts | 329° |
| 2026-05-07 07:54 | 14.50833 | 121.01292 | 81 ft | 2 kts | 330° |
| 2026-05-07 07:54 | 14.50820 | 121.01300 | 81 ft | 2 kts | 330° |
| 2026-05-07 07:54 | 14.50806 | 121.01308 | 81 ft | 2 kts | 330° |
| 2026-05-07 07:55 | 14.50798 | 121.01313 | 81 ft | 2 kts | 326° |
| 2026-05-07 07:55 | 14.50787 | 121.01324 | 81 ft | 2 kts | 303° |
| 2026-05-07 07:55 | 14.50780 | 121.01337 | 81 ft | 2 kts | 284° |
| 2026-05-07 07:55 | 14.50778 | 121.01354 | 81 ft | 2 kts | 266° |
| 2026-05-07 07:56 | 14.50781 | 121.01369 | 81 ft | 2 kts | 247° |
| 2026-05-07 07:56 | 14.50784 | 121.01376 | 81 ft | 1 kts | 238° |
| 2026-05-07 07:56 | 14.50786 | 121.01379 | 81 ft | 0 kts | 240° |
| 2026-05-07 07:56 | 14.50786 | 121.01378 | 81 ft | 0 kts | 240° |
| 2026-05-07 07:58 | 14.50785 | 121.01376 | 81 ft | 0 kts | 240° |
| 2026-05-07 07:59 | 14.50782 | 121.01370 | 81 ft | 1 kts | 240° |
| 2026-05-07 07:59 | 14.50776 | 121.01360 | 81 ft | 1 kts | 240° |
| 2026-05-07 07:59 | 14.50771 | 121.01350 | 81 ft | 0 kts | 240° |
| 2026-05-07 08:00 | 14.50768 | 121.01345 | 81 ft | 2 kts | 240° |
| 2026-05-07 08:00 | 14.50755 | 121.01324 | 81 ft | 4 kts | 225° |
| 2026-05-07 08:01 | 14.50724 | 121.01314 | 81 ft | 4 kts | 175° |
| 2026-05-07 08:01 | 14.50692 | 121.01321 | 81 ft | 4 kts | 178° |
| 2026-05-07 08:01 | 14.50666 | 121.01308 | 81 ft | 4 kts | 225° |
| 2026-05-07 08:01 | 14.50650 | 121.01283 | 81 ft | 4 kts | 240° |
| 2026-05-07 08:02 | 14.50631 | 121.01251 | 81 ft | 5 kts | 240° |
| 2026-05-07 08:02 | 14.50609 | 121.01210 | 81 ft | 7 kts | 240° |
| 2026-05-07 08:02 | 14.50582 | 121.01163 | 81 ft | 8 kts | 239° |
| 2026-05-07 08:02 | 14.50552 | 121.01109 | 81 ft | 9 kts | 240° |
| 2026-05-07 08:03 | 14.50519 | 121.01049 | 81 ft | 10 kts | 240° |
| 2026-05-07 08:03 | 14.50483 | 121.00984 | 81 ft | 10 kts | 240° |
| 2026-05-07 08:03 | 14.50445 | 121.00914 | 81 ft | 11 kts | 241° |
| 2026-05-07 08:03 | 14.50408 | 121.00845 | 81 ft | 10 kts | 241° |
| 2026-05-07 08:04 | 14.50371 | 121.00781 | 81 ft | 10 kts | 239° |
| 2026-05-07 08:04 | 14.50335 | 121.00719 | 81 ft | 9 kts | 239° |
| 2026-05-07 08:04 | 14.50301 | 121.00658 | 81 ft | 9 kts | 240° |
| 2026-05-07 08:04 | 14.50266 | 121.00595 | 81 ft | 10 kts | 242° |
| 2026-05-07 08:05 | 14.50228 | 121.00528 | 81 ft | 11 kts | 240° |
| 2026-05-07 08:05 | 14.50189 | 121.00454 | 81 ft | 12 kts | 241° |
| 2026-05-07 08:05 | 14.50144 | 121.00375 | 81 ft | 12 kts | 240° |
| 2026-05-07 08:05 | 14.50101 | 121.00297 | 81 ft | 12 kts | 240° |
| 2026-05-07 08:06 | 14.50055 | 121.00215 | 81 ft | 13 kts | 239° |
| 2026-05-07 08:06 | 14.50009 | 121.00131 | 81 ft | 13 kts | 240° |
| 2026-05-07 08:06 | 14.49961 | 121.00046 | 81 ft | 12 kts | 239° |
| 2026-05-07 08:06 | 14.49925 | 120.99983 | 81 ft | 8 kts | 235° |
| 2026-05-07 08:07 | 14.49883 | 120.99962 | 81 ft | 7 kts | 168° |
| 2026-05-07 08:07 | 14.49836 | 120.99987 | 81 ft | 7 kts | 150° |
| 2026-05-07 08:07 | 14.49801 | 121.00024 | 81 ft | 7 kts | 102° |
| 2026-05-07 08:07 | 14.49820 | 121.00077 | 81 ft | 8 kts | 58° |
| 2026-05-07 08:08 | 14.49851 | 121.00133 | 81 ft | 9 kts | 60° |
| 2026-05-07 08:08 | 14.49916 | 121.00252 | 81 ft | 38 kts | 60° |
| 2026-05-07 08:08 | 14.50172 | 121.00709 | 81 ft | 106 kts | 61° |
| 2026-05-07 08:08 | 14.50643 | 121.01558 | 83 ft | 161 kts | 65° |
| 2026-05-07 08:09 | 14.51228 | 121.02582 | 584 ft | 163 kts | 60° |
| 2026-05-07 08:09 | 14.51829 | 121.03561 | 1122 ft | 166 kts | 63° |
| 2026-05-07 08:09 | 14.52410 | 121.04601 | 1647 ft | 169 kts | 64° |
| 2026-05-07 08:09 | 14.52993 | 121.05667 | 2081 ft | 168 kts | 65° |
| 2026-05-07 08:11 | 14.57184 | 121.17280 | 4203 ft | 271 kts | 117° |
| 2026-05-07 08:12 | 14.55925 | 121.18740 | 4778 ft | 275 kts | 141° |
| 2026-05-07 08:12 | 14.52937 | 121.21268 | 5888 ft | 279 kts | 138° |
| 2026-05-07 08:12 | 14.51470 | 121.22591 | 6467 ft | 281 kts | 137° |
| 2026-05-07 08:13 | 14.50009 | 121.23914 | 7181 ft | 278 kts | 137° |
| 2026-05-07 08:13 | 14.48576 | 121.25217 | 8053 ft | 267 kts | 137° |
| 2026-05-07 08:13 | 14.47218 | 121.26449 | 8907 ft | 255 kts | 137° |
| 2026-05-07 08:13 | 14.45906 | 121.27640 | 9541 ft | 252 kts | 137° |
| 2026-05-07 08:14 | 14.44567 | 121.28858 | 10058 ft | 254 kts | 137° |
| 2026-05-07 08:14 | 14.43239 | 121.30064 | 10547 ft | 255 kts | 137° |
| 2026-05-07 08:14 | 14.41883 | 121.31295 | 11045 ft | 258 kts | 137° |
| 2026-05-07 08:14 | 14.40530 | 121.32523 | 11551 ft | 259 kts | 137° |
| 2026-05-07 08:15 | 14.39173 | 121.33755 | 12053 ft | 261 kts | 137° |
| 2026-05-07 08:15 | 14.37790 | 121.35009 | 12562 ft | 263 kts | 137° |
| 2026-05-07 08:15 | 14.36402 | 121.36268 | 13046 ft | 265 kts | 137° |
| 2026-05-07 08:15 | 14.34987 | 121.37552 | 13556 ft | 267 kts | 137° |
| 2026-05-07 08:16 | 14.33588 | 121.38821 | 14034 ft | 268 kts | 137° |
| 2026-05-07 08:16 | 14.32189 | 121.40090 | 14480 ft | 271 kts | 137° |
| 2026-05-07 08:16 | 14.30752 | 121.41393 | 14940 ft | 273 kts | 137° |
| 2026-05-07 08:16 | 14.29314 | 121.42695 | 15391 ft | 276 kts | 137° |
| 2026-05-07 08:17 | 14.27864 | 121.44008 | 15832 ft | 278 kts | 137° |
| 2026-05-07 08:17 | 14.26407 | 121.45328 | 16264 ft | 280 kts | 137° |
| 2026-05-07 08:17 | 14.24935 | 121.46661 | 16689 ft | 282 kts | 137° |
| 2026-05-07 08:17 | 14.23440 | 121.48016 | 17102 ft | 285 kts | 137° |
| 2026-05-07 08:18 | 14.21951 | 121.49364 | 17509 ft | 287 kts | 137° |
| 2026-05-07 08:18 | 14.20433 | 121.50738 | 17914 ft | 289 kts | 137° |
| 2026-05-07 08:18 | 14.18922 | 121.52107 | 18307 ft | 291 kts | 137° |
| 2026-05-07 08:18 | 14.17397 | 121.53487 | 18695 ft | 293 kts | 137° |
| 2026-05-07 08:19 | 14.15843 | 121.54893 | 19080 ft | 295 kts | 137° |
| 2026-05-07 08:19 | 14.14288 | 121.56301 | 19454 ft | 297 kts | 137° |
| 2026-05-07 08:19 | 14.12733 | 121.57709 | 19821 ft | 300 kts | 137° |
| 2026-05-07 08:19 | 14.11147 | 121.59145 | 20186 ft | 302 kts | 137° |
| 2026-05-07 08:20 | 14.09551 | 121.60588 | 20544 ft | 304 kts | 137° |
| 2026-05-07 08:20 | 14.07965 | 121.62022 | 20891 ft | 306 kts | 137° |
| 2026-05-07 08:20 | 14.06337 | 121.63494 | 21241 ft | 309 kts | 137° |
| 2026-05-07 08:20 | 14.04727 | 121.64949 | 21578 ft | 311 kts | 137° |
| 2026-05-07 08:21 | 14.03056 | 121.66459 | 21920 ft | 313 kts | 137° |
| 2026-05-07 08:21 | 14.01423 | 121.67935 | 22246 ft | 315 kts | 137° |
| 2026-05-07 08:21 | 13.99753 | 121.69444 | 22572 ft | 317 kts | 137° |
| 2026-05-07 08:21 | 13.98094 | 121.70943 | 22891 ft | 320 kts | 137° |
| 2026-05-07 08:22 | 13.96411 | 121.72464 | 23208 ft | 322 kts | 137° |
| 2026-05-07 08:22 | 13.94709 | 121.74001 | 23526 ft | 324 kts | 137° |
| 2026-05-07 08:22 | 13.93001 | 121.75543 | 23838 ft | 326 kts | 137° |
| 2026-05-07 08:22 | 13.91301 | 121.77077 | 24160 ft | 328 kts | 137° |
| 2026-05-07 08:23 | 13.89552 | 121.78655 | 24487 ft | 330 kts | 138° |
| 2026-05-07 08:23 | 13.87834 | 121.80215 | 24804 ft | 333 kts | 136° |
| 2026-05-07 08:23 | 13.86171 | 121.81899 | 25122 ft | 335 kts | 132° |
| 2026-05-07 08:23 | 13.84634 | 121.83698 | 25432 ft | 337 kts | 129° |
| 2026-05-07 08:24 | 13.83115 | 121.85558 | 25740 ft | 339 kts | 129° |
| 2026-05-07 08:24 | 13.81584 | 121.87441 | 26047 ft | 341 kts | 129° |
| 2026-05-07 08:24 | 13.80052 | 121.89324 | 26351 ft | 344 kts | 129° |
| 2026-05-07 08:24 | 13.78503 | 121.91225 | 26649 ft | 345 kts | 129° |
| 2026-05-07 08:25 | 13.76953 | 121.93128 | 26941 ft | 348 kts | 129° |
| 2026-05-07 08:25 | 13.75365 | 121.95073 | 27238 ft | 350 kts | 130° |
| 2026-05-07 08:25 | 13.73804 | 121.96985 | 27529 ft | 353 kts | 130° |
| 2026-05-07 08:25 | 13.72195 | 121.98955 | 27820 ft | 355 kts | 130° |
| 2026-05-07 08:26 | 13.68995 | 122.02870 | 28430 ft | 359 kts | 130° |
| 2026-05-07 08:26 | 13.67359 | 122.04871 | 28742 ft | 361 kts | 130° |
| 2026-05-07 08:26 | 13.65744 | 122.06847 | 29042 ft | 364 kts | 130° |
| 2026-05-07 08:27 | 13.64086 | 122.08874 | 29344 ft | 366 kts | 130° |
| 2026-05-07 08:27 | 13.62436 | 122.10892 | 29640 ft | 368 kts | 130° |
| 2026-05-07 08:27 | 13.60793 | 122.12900 | 29935 ft | 370 kts | 130° |
| 2026-05-07 08:27 | 13.59115 | 122.14951 | 30219 ft | 372 kts | 130° |
| 2026-05-07 08:28 | 13.57431 | 122.17009 | 30501 ft | 374 kts | 130° |
| 2026-05-07 08:28 | 13.55763 | 122.19048 | 30763 ft | 377 kts | 131° |
| 2026-05-07 08:28 | 13.52269 | 122.23312 | 30870 ft | 397 kts | 131° |
| 2026-05-07 08:29 | 13.50470 | 122.25505 | 30877 ft | 408 kts | 131° |
| 2026-05-07 08:29 | 13.48599 | 122.27786 | 30881 ft | 418 kts | 131° |
| 2026-05-07 08:29 | 13.44696 | 122.32543 | 30839 ft | 438 kts | 131° |
| 2026-05-07 08:30 | 13.40708 | 122.37405 | 30803 ft | 445 kts | 131° |
| 2026-05-07 08:30 | 13.36632 | 122.42371 | 30801 ft | 459 kts | 131° |
| 2026-05-07 08:31 | 13.32448 | 122.47464 | 30801 ft | 472 kts | 131° |
| 2026-05-07 08:31 | 13.28154 | 122.52689 | 30802 ft | 479 kts | 131° |
| 2026-05-07 08:32 | 13.23848 | 122.57928 | 30803 ft | 480 kts | 131° |
| 2026-05-07 08:32 | 13.19512 | 122.63199 | 30801 ft | 480 kts | 131° |
| 2026-05-07 08:33 | 13.15151 | 122.68497 | 30797 ft | 480 kts | 131° |
| 2026-05-07 08:33 | 13.10836 | 122.73737 | 30794 ft | 480 kts | 131° |
| 2026-05-07 08:34 | 13.06452 | 122.79057 | 30793 ft | 480 kts | 131° |
| 2026-05-07 08:34 | 13.02120 | 122.84309 | 30793 ft | 481 kts | 131° |
| 2026-05-07 08:35 | 12.97794 | 122.89554 | 30793 ft | 481 kts | 131° |
| 2026-05-07 08:35 | 12.93457 | 122.94807 | 30793 ft | 481 kts | 131° |
| 2026-05-07 08:36 | 12.89169 | 122.99998 | 30794 ft | 481 kts | 131° |
| 2026-05-07 08:36 | 12.84671 | 123.05441 | 30794 ft | 481 kts | 131° |
| 2026-05-07 08:37 | 12.80285 | 123.10744 | 30795 ft | 481 kts | 131° |
| 2026-05-07 08:37 | 12.75899 | 123.16045 | 30796 ft | 481 kts | 131° |
| 2026-05-07 08:38 | 12.71573 | 123.21274 | 30794 ft | 465 kts | 131° |
| 2026-05-07 08:38 | 12.69486 | 123.23796 | 30799 ft | 449 kts | 131° |
| 2026-05-07 08:38 | 12.67467 | 123.26234 | 30801 ft | 446 kts | 131° |
| 2026-05-07 08:39 | 12.63413 | 123.31126 | 30801 ft | 446 kts | 131° |
| 2026-05-07 08:39 | 12.59370 | 123.36001 | 30802 ft | 445 kts | 131° |
| 2026-05-07 08:40 | 12.55314 | 123.40890 | 30802 ft | 446 kts | 131° |
| 2026-05-07 08:40 | 12.51282 | 123.45747 | 30803 ft | 446 kts | 131° |
| 2026-05-07 08:41 | 12.47239 | 123.50616 | 30805 ft | 446 kts | 131° |
| 2026-05-07 08:41 | 12.43154 | 123.55535 | 30809 ft | 446 kts | 131° |
| 2026-05-07 08:42 | 12.39121 | 123.60389 | 30811 ft | 446 kts | 131° |
| 2026-05-07 08:42 | 12.35064 | 123.65299 | 30812 ft | 446 kts | 130° |
| 2026-05-07 08:43 | 12.31055 | 123.70252 | 30812 ft | 446 kts | 130° |
| 2026-05-07 08:43 | 12.27095 | 123.75148 | 30812 ft | 446 kts | 130° |
| 2026-05-07 08:44 | 12.23131 | 123.80043 | 30610 ft | 445 kts | 130° |
| 2026-05-07 08:44 | 12.21140 | 123.82500 | 30391 ft | 442 kts | 130° |
| 2026-05-07 08:44 | 12.19189 | 123.84907 | 30164 ft | 441 kts | 130° |
| 2026-05-07 08:45 | 12.17217 | 123.87337 | 29933 ft | 439 kts | 130° |
| 2026-05-07 08:45 | 12.15270 | 123.89738 | 29690 ft | 438 kts | 130° |
| 2026-05-07 08:45 | 12.13338 | 123.92119 | 29404 ft | 435 kts | 130° |
| 2026-05-07 08:45 | 12.11398 | 123.94509 | 29081 ft | 434 kts | 130° |
| 2026-05-07 08:46 | 12.09457 | 123.96899 | 28682 ft | 431 kts | 130° |
| 2026-05-07 08:46 | 12.07568 | 123.99226 | 28259 ft | 428 kts | 130° |
| 2026-05-07 08:46 | 12.05664 | 124.01569 | 27798 ft | 424 kts | 129° |
| 2026-05-07 08:46 | 12.03788 | 124.03879 | 27303 ft | 421 kts | 129° |
| 2026-05-07 08:47 | 12.01912 | 124.06189 | 26794 ft | 418 kts | 129° |
| 2026-05-07 08:47 | 12.00043 | 124.08488 | 26279 ft | 416 kts | 129° |
| 2026-05-07 08:47 | 11.98207 | 124.10748 | 25749 ft | 413 kts | 129° |
| 2026-05-07 08:47 | 11.96375 | 124.13004 | 25220 ft | 410 kts | 129° |
| 2026-05-07 08:48 | 11.94548 | 124.15252 | 24704 ft | 406 kts | 129° |
| 2026-05-07 08:48 | 11.92748 | 124.17466 | 24204 ft | 402 kts | 129° |
| 2026-05-07 08:48 | 11.90962 | 124.19663 | 23710 ft | 398 kts | 129° |
| 2026-05-07 08:48 | 11.89162 | 124.21877 | 23216 ft | 394 kts | 128° |
| 2026-05-07 08:49 | 11.87394 | 124.24049 | 22734 ft | 390 kts | 128° |
| 2026-05-07 08:49 | 11.85645 | 124.26197 | 22261 ft | 387 kts | 128° |
| 2026-05-07 08:49 | 11.83929 | 124.28299 | 21852 ft | 381 kts | 128° |
| 2026-05-07 08:49 | 11.82243 | 124.30365 | 21457 ft | 377 kts | 128° |
| 2026-05-07 08:50 | 11.80575 | 124.32409 | 21038 ft | 373 kts | 128° |
| 2026-05-07 08:50 | 11.78915 | 124.34444 | 20605 ft | 370 kts | 128° |
| 2026-05-07 08:50 | 11.77261 | 124.36474 | 20173 ft | 367 kts | 128° |
| 2026-05-07 08:50 | 11.75619 | 124.38487 | 19737 ft | 365 kts | 128° |
| 2026-05-07 08:51 | 11.74002 | 124.40468 | 19296 ft | 363 kts | 128° |
| 2026-05-07 08:51 | 11.72394 | 124.42438 | 18855 ft | 361 kts | 128° |
| 2026-05-07 08:51 | 11.70786 | 124.44408 | 18406 ft | 359 kts | 128° |
| 2026-05-07 08:51 | 11.69169 | 124.46390 | 17954 ft | 357 kts | 128° |
| 2026-05-07 08:52 | 11.67582 | 124.48334 | 17507 ft | 355 kts | 128° |
| 2026-05-07 08:52 | 11.66011 | 124.50257 | 17065 ft | 354 kts | 127° |
| 2026-05-07 08:52 | 11.64434 | 124.52190 | 16620 ft | 351 kts | 127° |
| 2026-05-07 08:52 | 11.62867 | 124.54108 | 16177 ft | 349 kts | 127° |
| 2026-05-07 08:53 | 11.61298 | 124.56032 | 15731 ft | 348 kts | 127° |
| 2026-05-07 08:53 | 11.59767 | 124.57907 | 15293 ft | 344 kts | 127° |
| 2026-05-07 08:53 | 11.58217 | 124.59808 | 14850 ft | 342 kts | 127° |
| 2026-05-07 08:53 | 11.56708 | 124.61660 | 14412 ft | 341 kts | 127° |
| 2026-05-07 08:54 | 11.55179 | 124.63534 | 13965 ft | 339 kts | 127° |
| 2026-05-07 08:54 | 11.53668 | 124.65383 | 13521 ft | 338 kts | 128° |
| 2026-05-07 08:54 | 11.52171 | 124.67214 | 13080 ft | 336 kts | 128° |
| 2026-05-07 08:54 | 11.50631 | 124.69012 | 12632 ft | 335 kts | 132° |
| 2026-05-07 08:55 | 11.48887 | 124.70619 | 12186 ft | 334 kts | 140° |
| 2026-05-07 08:55 | 11.46997 | 124.72010 | 11745 ft | 332 kts | 143° |
| 2026-05-07 08:55 | 11.45077 | 124.73344 | 11300 ft | 330 kts | 143° |
| 2026-05-07 08:55 | 11.43185 | 124.74649 | 10864 ft | 328 kts | 143° |
| 2026-05-07 08:56 | 11.41290 | 124.75957 | 10429 ft | 325 kts | 143° |
| 2026-05-07 08:56 | 11.39402 | 124.77264 | 10064 ft | 319 kts | 143° |
| 2026-05-07 08:56 | 11.37606 | 124.78505 | 9935 ft | 305 kts | 143° |
| 2026-05-07 08:56 | 11.35862 | 124.79712 | 9780 ft | 293 kts | 143° |
| 2026-05-07 08:57 | 11.34184 | 124.80875 | 9478 ft | 288 kts | 143° |
| 2026-05-07 08:57 | 11.32517 | 124.82031 | 9090 ft | 287 kts | 143° |
| 2026-05-07 08:57 | 11.30862 | 124.83178 | 8723 ft | 285 kts | 143° |
| 2026-05-07 08:57 | 11.30185 | 124.83647 | 8575 ft | 284 kts | 143° |
| 2026-05-07 08:58 | 11.28548 | 124.84782 | 8218 ft | 282 kts | 143° |
| 2026-05-07 08:58 | 11.26883 | 124.85864 | 7932 ft | 279 kts | 150° |
| 2026-05-07 08:58 | 11.25083 | 124.86580 | 7722 ft | 273 kts | 162° |
| 2026-05-07 08:58 | 11.23243 | 124.87024 | 7423 ft | 271 kts | 165° |
| 2026-05-07 08:59 | 11.21390 | 124.87427 | 7111 ft | 269 kts | 165° |
| 2026-05-07 08:59 | 11.19543 | 124.87825 | 6794 ft | 265 kts | 165° |
| 2026-05-07 08:59 | 11.17741 | 124.88219 | 6481 ft | 264 kts | 165° |
| 2026-05-07 08:59 | 11.15934 | 124.88618 | 6164 ft | 262 kts | 165° |
| 2026-05-07 09:00 | 11.14141 | 124.89016 | 5848 ft | 261 kts | 165° |
| 2026-05-07 09:00 | 11.12370 | 124.89410 | 5535 ft | 260 kts | 164° |
| 2026-05-07 09:00 | 11.10585 | 124.89806 | 5218 ft | 258 kts | 164° |
| 2026-05-07 09:00 | 11.08811 | 124.90201 | 4903 ft | 257 kts | 164° |
| 2026-05-07 09:01 | 11.07059 | 124.90591 | 4592 ft | 256 kts | 164° |
| 2026-05-07 09:01 | 11.05358 | 124.91073 | 4251 ft | 252 kts | 149° |
| 2026-05-07 09:01 | 11.04094 | 124.92258 | 3962 ft | 242 kts | 118° |
| 2026-05-07 09:01 | 11.03602 | 124.93874 | 3662 ft | 238 kts | 94° |
| 2026-05-07 09:02 | 11.03519 | 124.95543 | 3377 ft | 236 kts | 93° |
| 2026-05-07 09:02 | 11.03429 | 124.97185 | 3301 ft | 223 kts | 93° |
| 2026-05-07 09:02 | 11.03338 | 124.98728 | 3278 ft | 210 kts | 93° |
| 2026-05-07 09:02 | 11.03332 | 125.00166 | 3214 ft | 198 kts | 76° |
| 2026-05-07 09:03 | 11.04081 | 125.01285 | 3186 ft | 190 kts | 37° |
| 2026-05-07 09:03 | 11.05329 | 125.01675 | 3045 ft | 185 kts | 9° |
| 2026-05-07 09:03 | 11.06605 | 125.01740 | 2905 ft | 175 kts | 7° |
| 2026-05-07 09:03 | 11.07792 | 125.01798 | 2764 ft | 165 kts | 8° |
| 2026-05-07 09:04 | 11.08920 | 125.01859 | 2537 ft | 160 kts | 8° |
| 2026-05-07 09:04 | 11.10015 | 125.01926 | 2322 ft | 151 kts | 8° |
| 2026-05-07 09:04 | 11.11036 | 125.01988 | 2106 ft | 140 kts | 9° |
| 2026-05-07 09:04 | 11.12025 | 125.02054 | 1919 ft | 139 kts | 9° |
| 2026-05-07 09:05 | 11.12995 | 125.02119 | 1737 ft | 138 kts | 9° |
| 2026-05-07 09:05 | 11.13965 | 125.02187 | 1556 ft | 138 kts | 9° |
| 2026-05-07 09:05 | 11.14925 | 125.02252 | 1375 ft | 138 kts | 9° |
| 2026-05-07 09:05 | 11.15896 | 125.02318 | 1191 ft | 137 kts | 9° |
| 2026-05-07 09:06 | 11.16858 | 125.02382 | 1009 ft | 137 kts | 9° |
| 2026-05-07 09:06 | 11.17812 | 125.02446 | 827 ft | 137 kts | 9° |
| 2026-05-07 09:06 | 11.18770 | 125.02510 | 622 ft | 137 kts | 8° |
| 2026-05-07 09:06 | 11.19731 | 125.02569 | 389 ft | 136 kts | 8° |
| 2026-05-07 09:07 | 11.20685 | 125.02633 | 222 ft | 136 kts | 8° |
| 2026-05-07 09:07 | 11.21633 | 125.02698 | 80 ft | 136 kts | 7° |
| 2026-05-07 09:07 | 11.22556 | 125.02758 | 21 ft | 115 kts | 8° |
| 2026-05-07 09:07 | 11.23064 | 125.02795 | 19 ft | 35 kts | 4° |
| 2026-05-07 09:08 | 11.23299 | 125.02813 | 19 ft | 30 kts | 3° |
| 2026-05-07 09:08 | 11.23478 | 125.02823 | 19 ft | 18 kts | 4° |
| 2026-05-07 09:08 | 11.23603 | 125.02830 | 18 ft | 16 kts | 358° |
| 2026-05-07 09:08 | 11.23667 | 125.02818 | 18 ft | 2 kts | 35° |
| 2026-05-07 09:09 | 11.23648 | 125.02833 | 18 ft | 5 kts | 175° |
| 2026-05-07 09:09 | 11.23608 | 125.02831 | 18 ft | 6 kts | 181° |
| 2026-05-07 09:09 | 11.23560 | 125.02828 | 19 ft | 7 kts | 184° |
| 2026-05-07 09:09 | 11.23506 | 125.02824 | 19 ft | 8 kts | 184° |
| 2026-05-07 09:10 | 11.23446 | 125.02821 | 19 ft | 9 kts | 183° |
| 2026-05-07 09:10 | 11.23379 | 125.02817 | 19 ft | 10 kts | 184° |
| 2026-05-07 09:10 | 11.23306 | 125.02812 | 19 ft | 10 kts | 184° |
| 2026-05-07 09:10 | 11.23227 | 125.02807 | 19 ft | 11 kts | 184° |
| 2026-05-07 09:11 | 11.23142 | 125.02801 | 19 ft | 12 kts | 184° |
| 2026-05-07 09:11 | 11.23055 | 125.02795 | 19 ft | 12 kts | 183° |
| 2026-05-07 09:11 | 11.22962 | 125.02788 | 19 ft | 13 kts | 184° |
| 2026-05-07 09:11 | 11.22867 | 125.02782 | 20 ft | 13 kts | 184° |
| 2026-05-07 09:12 | 11.22769 | 125.02776 | 20 ft | 14 kts | 183° |
| 2026-05-07 09:12 | 11.22667 | 125.02769 | 20 ft | 14 kts | 183° |
| 2026-05-07 09:12 | 11.22582 | 125.02763 | 20 ft | 6 kts | 188° |
| 2026-05-07 09:12 | 11.22565 | 125.02733 | 20 ft | 5 kts | 278° |
| 2026-05-07 09:13 | 11.22585 | 125.02697 | 20 ft | 6 kts | 313° |
| 2026-05-07 09:13 | 11.22616 | 125.02666 | 20 ft | 5 kts | 316° |
| 2026-05-07 09:13 | 11.22636 | 125.02647 | 20 ft | 0 kts | 317° |